Time;durP1;ratioP1;P1;durP2;ratioP2;P2;SDS_P1;SDS_P2;PMS_P1;PMS_P2;Temp;Humidity;BMP_temperature;BMP_pressure;BME280_temperature;BME280_humidity;BME280_pressure;Samples;Min_cycle;Max_cycle;Signal;HPM_P1;HPM_P2
2022/01/16 00:04:44;;;;;;;45.55;23.35;;;3.30;99.90;;;;;;5010062;28;20026;-43
2022/01/16 00:07:09;;;;;;;40.92;22.02;;;3.30;99.90;;;;;;5009756;28;20041;-44
2022/01/16 00:09:41;;;;;;;52.92;27.77;;;3.30;99.90;;;;;;5006987;28;20108;-43
2022/01/16 00:12:11;;;;;;;50.63;26.30;;;3.40;99.90;;;;;;5009645;28;20022;-44
2022/01/16 00:14:36;;;;;;;46.30;24.52;;;3.30;99.90;;;;;;5009300;28;20033;-43
2022/01/16 00:17:04;;;;;;;52.40;25.75;;;3.30;99.90;;;;;;5008540;28;20405;-43
2022/01/16 00:19:29;;;;;;;51.40;25.55;;;3.30;99.90;;;;;;4990024;28;20033;-43
2022/01/16 00:21:55;;;;;;;61.95;29.83;;;3.30;99.90;;;;;;5003384;28;20033;-46
2022/01/16 00:24:21;;;;;;;55.20;28.33;;;3.20;99.90;;;;;;5008820;28;20030;-44
2022/01/16 00:26:46;;;;;;;55.03;28.67;;;3.20;99.90;;;;;;5008867;28;20025;-43
2022/01/16 00:29:12;;;;;;;60.40;29.98;;;3.20;99.90;;;;;;5009616;28;20034;-43
2022/01/16 00:31:40;;;;;;;55.67;28.83;;;3.20;99.90;;;;;;5008560;28;20022;-43
2022/01/16 00:34:10;;;;;;;55.65;28.90;;;3.20;99.90;;;;;;5009378;28;20503;-43
2022/01/16 00:36:35;;;;;;;56.22;28.00;;;3.20;99.90;;;;;;5008683;28;20639;-43
2022/01/16 00:39:02;;;;;;;51.08;27.08;;;3.20;99.90;;;;;;5008229;28;20025;-42
2022/01/16 00:41:27;;;;;;;64.38;33.20;;;3.20;99.90;;;;;;5009034;28;20103;-42
2022/01/16 00:43:53;;;;;;;60.63;31.60;;;3.20;99.90;;;;;;5009064;28;20426;-43
2022/01/16 00:46:22;;;;;;;56.38;30.00;;;3.20;99.90;;;;;;5008726;28;20030;-44
2022/01/16 00:48:48;;;;;;;55.03;29.55;;;3.20;99.90;;;;;;5008557;28;20033;-44
2022/01/16 00:51:17;;;;;;;55.50;30.13;;;3.30;99.90;;;;;;5008375;28;20038;-43
2022/01/16 00:53:43;;;;;;;55.05;29.60;;;3.20;99.90;;;;;;5008694;28;20025;-44
2022/01/16 00:56:09;;;;;;;54.10;28.23;;;3.20;99.90;;;;;;5008923;28;20042;-43
2022/01/16 00:58:34;;;;;;;53.92;28.23;;;3.30;99.90;;;;;;5008008;28;20389;-44
2022/01/16 01:01:00;;;;;;;52.20;28.02;;;3.30;99.90;;;;;;5007614;28;20038;-44
2022/01/16 01:03:26;;;;;;;54.28;28.02;;;3.30;99.90;;;;;;5008581;28;20454;-44
2022/01/16 01:05:52;;;;;;;57.47;29.98;;;3.30;99.90;;;;;;5008219;28;20036;-42
2022/01/16 01:08:18;;;;;;;54.10;27.67;;;3.30;99.90;;;;;;5008958;28;20037;-44
2022/01/16 01:10:47;;;;;;;57.88;29.08;;;3.30;99.90;;;;;;5008252;28;20058;-43
2022/01/16 01:13:30;;;;;;;49.83;27.45;;;3.30;99.90;;;;;;5007608;28;20113;-43
2022/01/16 01:16:02;;;;;;;54.33;27.60;;;3.30;99.90;;;;;;5008912;28;20041;-44
2022/01/16 01:18:29;;;;;;;54.95;27.50;;;3.30;99.90;;;;;;5008200;28;20115;-44
2022/01/16 01:20:57;;;;;;;46.45;25.85;;;3.20;99.90;;;;;;5007398;28;20113;-44
2022/01/16 01:23:23;;;;;;;51.83;28.38;;;3.20;99.90;;;;;;5008472;28;20029;-43
2022/01/16 01:25:48;;;;;;;51.65;28.52;;;3.10;99.90;;;;;;5008075;28;20030;-43
2022/01/16 01:28:14;;;;;;;47.42;26.33;;;3.10;99.90;;;;;;5007693;28;20024;-43
2022/01/16 01:30:43;;;;;;;49.33;25.35;;;3.10;99.90;;;;;;5008371;28;20496;-44
2022/01/16 01:33:08;;;;;;;49.47;25.52;;;3.10;99.90;;;;;;5008026;28;20026;-44
2022/01/16 01:35:38;;;;;;;47.80;25.70;;;3.10;99.90;;;;;;5007361;28;20578;-44
2022/01/16 01:38:05;;;;;;;44.58;23.75;;;3.10;99.90;;;;;;5007420;28;20080;-43
2022/01/16 01:40:31;;;;;;;46.38;23.13;;;3.10;99.90;;;;;;5007743;28;20100;-43
2022/01/16 01:51:21;;;;;;;49.42;26.88;;;3.10;99.90;;;;;;4997789;28;20052;-43
2022/01/16 01:53:47;;;;;;;50.08;26.17;;;3.00;99.90;;;;;;5006939;28;20025;-44
2022/01/16 01:56:17;;;;;;;45.92;25.50;;;3.00;99.90;;;;;;5007316;28;20037;-43
2022/01/16 01:58:43;;;;;;;48.13;26.45;;;3.00;99.90;;;;;;5008311;28;20062;-44
2022/01/16 02:01:08;;;;;;;47.72;24.60;;;3.00;99.90;;;;;;5007467;28;20064;-43
2022/01/16 02:06:00;;;;;;;41.08;21.98;;;3.00;99.90;;;;;;5007541;28;20078;-45
2022/01/16 02:08:25;;;;;;;41.45;24.27;;;3.00;99.90;;;;;;5006980;28;20034;-44
2022/01/16 02:10:51;;;;;;;49.90;26.70;;;3.00;99.90;;;;;;5007167;28;20073;-45
2022/01/16 02:13:30;;;;;;;43.95;24.30;;;3.00;99.90;;;;;;4987882;28;20061;-44
2022/01/16 02:30:00;;;;;;;48.67;25.88;;;3.00;99.90;;;;;;5007973;28;20056;-48
2022/01/16 02:34:37;;;;;;;46.03;25.13;;;3.00;99.90;;;;;;5007273;28;20724;-44
2022/01/16 02:37:15;;;;;;;46.17;25.75;;;3.00;99.90;;;;;;5006622;28;20030;-43
2022/01/16 02:39:45;;;;;;;45.28;23.17;;;3.00;99.90;;;;;;5006244;28;20030;-43
2022/01/16 02:42:12;;;;;;;46.40;22.98;;;3.00;99.90;;;;;;5006874;28;20872;-43
2022/01/16 02:44:50;;;;;;;44.17;23.80;;;3.00;99.90;;;;;;5006858;28;20014;-43
2022/01/16 02:47:19;;;;;;;41.78;23.73;;;3.10;99.90;;;;;;5007297;28;20090;-44
2022/01/16 02:49:50;;;;;;;50.15;25.38;;;3.10;99.90;;;;;;5007437;28;20044;-44
2022/01/16 02:52:20;;;;;;;45.40;23.75;;;3.10;99.90;;;;;;5006024;28;20440;-44
2022/01/16 02:54:49;;;;;;;45.47;24.52;;;3.10;99.90;;;;;;5006965;28;20107;-42
2022/01/16 02:57:17;;;;;;;44.92;24.23;;;3.10;99.90;;;;;;5007009;28;20048;-46
2022/01/16 02:59:50;;;;;;;46.95;24.40;;;3.10;99.90;;;;;;5006238;28;20050;-43
2022/01/16 03:02:18;;;;;;;48.58;25.02;;;3.10;99.90;;;;;;5007188;28;20469;-44
2022/01/16 03:04:43;;;;;;;43.58;22.33;;;3.10;99.90;;;;;;5005872;28;20481;-42
2022/01/16 03:07:09;;;;;;;44.42;23.63;;;3.20;99.90;;;;;;5006620;28;20045;-44
2022/01/16 03:10:03;;;;;;;43.72;23.45;;;3.10;99.90;;;;;;5007212;28;20041;-43
2022/01/16 03:12:29;;;;;;;48.90;24.02;;;3.10;99.90;;;;;;5005977;28;20030;-43
2022/01/16 03:14:54;;;;;;;45.08;23.73;;;3.10;99.90;;;;;;5006442;28;20030;-43
2022/01/16 03:21:52;;;;;;;39.95;20.45;;;3.10;99.90;;;;;;5006895;28;20026;-43
2022/01/16 03:23:06;;;;;;;50.10;26.20;;;3.20;99.90;;;;;;5006903;28;20099;-43
2022/01/16 03:25:32;;;;;;;43.17;22.95;;;3.20;99.90;;;;;;5009543;28;20417;-43
2022/01/16 03:27:57;;;;;;;41.33;22.67;;;3.20;99.90;;;;;;5009496;28;20024;-44
2022/01/16 03:30:23;;;;;;;37.67;21.23;;;3.20;99.90;;;;;;5010248;28;20033;-44
2022/01/16 03:32:48;;;;;;;44.45;22.67;;;3.20;99.90;;;;;;5009537;28;20033;-43
2022/01/16 03:35:14;;;;;;;42.72;21.75;;;3.20;99.90;;;;;;5010550;28;20030;-42
2022/01/16 03:37:40;;;;;;;39.83;20.23;;;3.20;99.90;;;;;;5010174;28;20018;-43
2022/01/16 03:40:11;;;;;;;34.75;17.95;;;3.20;99.90;;;;;;5009782;28;20026;-44
2022/01/16 03:42:38;;;;;;;38.50;21.23;;;3.20;99.90;;;;;;5009975;28;20057;-43
2022/01/16 03:45:05;;;;;;;46.75;22.98;;;3.20;99.90;;;;;;4999334;28;20595;-43
2022/01/16 03:47:30;;;;;;;49.05;22.95;;;3.20;99.90;;;;;;5009730;28;20026;-43
2022/01/16 03:49:56;;;;;;;54.75;23.25;;;3.20;99.90;;;;;;5009794;28;20054;-42
2022/01/16 03:52:22;;;;;;;48.28;21.70;;;3.20;99.90;;;;;;5010047;28;20037;-44
2022/01/16 03:54:47;;;;;;;47.13;22.55;;;3.20;99.90;;;;;;5008982;28;20049;-43
2022/01/16 03:57:13;;;;;;;48.17;22.45;;;3.30;99.90;;;;;;5010167;28;20466;-43
2022/01/16 03:59:39;;;;;;;48.22;23.27;;;3.30;99.90;;;;;;5009964;28;20022;-43
2022/01/16 04:02:04;;;;;;;51.25;24.40;;;3.30;99.90;;;;;;5008913;28;20480;-43
2022/01/16 04:04:31;;;;;;;47.45;24.48;;;3.30;99.90;;;;;;5009390;28;20033;-44
2022/01/16 04:06:57;;;;;;;52.70;24.33;;;3.30;99.90;;;;;;5009654;28;20549;-42
2022/01/16 04:09:23;;;;;;;53.03;26.67;;;3.30;99.90;;;;;;5009009;28;20029;-43
2022/01/16 04:11:53;;;;;;;49.63;24.60;;;3.30;99.90;;;;;;5009646;28;20174;-43
2022/01/16 04:17:08;;;;;;;48.88;22.83;;;3.30;99.90;;;;;;4989000;28;20040;-41
2022/01/16 04:19:35;;;;;;;44.20;21.45;;;3.40;99.90;;;;;;5009789;28;20014;-43
2022/01/16 04:22:00;;;;;;;50.13;24.02;;;3.40;99.90;;;;;;5008678;28;20068;-43
2022/01/16 04:24:26;;;;;;;52.67;24.33;;;3.40;99.90;;;;;;5009271;28;20069;-43
2022/01/16 04:26:52;;;;;;;54.88;24.35;;;3.40;99.90;;;;;;5009518;28;20033;-43
2022/01/16 04:29:17;;;;;;;52.08;24.58;;;3.40;99.90;;;;;;5008579;28;20025;-43
2022/01/16 04:31:43;;;;;;;52.25;23.85;;;3.40;99.90;;;;;;5009462;28;20520;-43
2022/01/16 04:34:08;;;;;;;49.13;23.42;;;3.40;99.90;;;;;;5008844;28;20071;-43
2022/01/16 04:36:34;;;;;;;53.10;24.73;;;3.40;99.90;;;;;;5008189;28;20039;-43
2022/01/16 04:38:59;;;;;;;47.83;24.20;;;3.40;99.90;;;;;;5009091;28;20030;-44
2022/01/16 04:44:09;;;;;;;57.00;28.25;;;3.40;99.90;;;;;;5008493;28;20162;-43
2022/01/16 04:46:34;;;;;;;54.92;26.40;;;3.40;99.90;;;;;;5008711;28;20477;-42
2022/01/16 04:49:02;;;;;;;51.67;25.20;;;3.40;99.90;;;;;;5009339;28;20056;-44
2022/01/16 04:51:29;;;;;;;50.67;27.05;;;3.40;99.90;;;;;;5007737;28;20610;-43
2022/01/16 04:53:55;;;;;;;52.75;26.48;;;3.50;99.90;;;;;;5009193;28;20547;-43
2022/01/16 04:56:20;;;;;;;54.25;28.55;;;3.50;99.90;;;;;;5009067;28;20619;-44
2022/01/16 04:58:46;;;;;;;59.08;30.27;;;3.50;99.90;;;;;;5007920;28;20060;-44
2022/01/16 05:01:12;;;;;;;51.88;27.58;;;3.50;99.90;;;;;;5009187;28;20030;-43
2022/01/16 05:03:39;;;;;;;54.90;28.92;;;3.50;99.90;;;;;;5008866;28;20072;-43
2022/01/16 05:06:04;;;;;;;53.55;29.23;;;3.50;99.90;;;;;;5007343;28;20440;-43
2022/01/16 05:08:30;;;;;;;57.13;29.27;;;3.50;99.90;;;;;;5009087;28;20029;-42
2022/01/16 05:10:57;;;;;;;52.63;28.35;;;3.50;99.90;;;;;;5008578;28;20076;-43
2022/01/16 05:16:34;;;;;;;49.65;26.80;;;3.50;99.90;;;;;;5007424;28;20389;-44
2022/01/16 05:18:58;;;;;;;39.83;22.48;;;3.50;99.90;;;;;;5007767;28;20089;-42
2022/01/16 05:21:24;;;;;;;50.53;24.88;;;3.50;99.90;;;;;;5007980;28;20026;-43
2022/01/16 05:23:50;;;;;;;45.60;24.90;;;3.60;99.90;;;;;;5008524;28;20496;-42
2022/01/16 05:26:18;;;;;;;50.15;26.45;;;3.60;99.90;;;;;;5007568;28;20032;-43
2022/01/16 05:28:44;;;;;;;48.38;25.50;;;3.60;99.90;;;;;;5008327;28;20026;-43
2022/01/16 05:31:10;;;;;;;48.05;25.00;;;3.60;99.90;;;;;;5007953;28;20068;-43
2022/01/16 05:33:35;;;;;;;43.78;23.80;;;3.60;99.90;;;;;;5007049;28;20057;-43
2022/01/16 05:36:01;;;;;;;43.78;25.50;;;3.60;99.90;;;;;;5008291;28;20030;-43
2022/01/16 05:38:27;;;;;;;56.22;29.13;;;3.60;99.90;;;;;;5007956;28;20022;-43
2022/01/16 05:40:53;;;;;;;50.72;27.25;;;3.60;99.90;;;;;;5007582;28;20057;-43
2022/01/16 05:43:18;;;;;;;55.08;27.73;;;3.60;99.90;;;;;;5007687;28;20448;-43
2022/01/16 05:45:44;;;;;;;56.85;30.70;;;3.60;99.90;;;;;;5007928;28;20022;-43
2022/01/16 05:48:09;;;;;;;55.97;29.75;;;3.60;99.90;;;;;;5006672;28;20591;-42
2022/01/16 05:50:35;;;;;;;55.33;29.25;;;3.60;99.90;;;;;;5007931;28;20048;-43
2022/01/16 05:53:02;;;;;;;56.97;30.35;;;3.60;99.90;;;;;;5007986;28;20038;-43
2022/01/16 05:55:36;;;;;;;55.50;30.45;;;3.60;99.90;;;;;;5006528;28;20066;-44
2022/01/16 05:58:06;;;;;;;49.47;28.08;;;3.70;99.90;;;;;;5007339;28;20258;-43
2022/01/16 06:00:33;;;;;;;51.15;27.48;;;3.60;99.90;;;;;;5007251;28;20108;-41
2022/01/16 06:02:59;;;;;;;53.55;28.15;;;3.70;99.90;;;;;;5007678;28;20049;-43
2022/01/16 06:05:25;;;;;;;57.90;30.33;;;3.60;99.90;;;;;;5007665;28;20037;-42
2022/01/16 06:07:55;;;;;;;67.15;36.05;;;3.70;99.90;;;;;;5006410;28;20030;-43
2022/01/16 06:10:21;;;;;;;69.05;38.03;;;3.70;99.90;;;;;;5007789;28;20061;-43
2022/01/16 06:12:46;;;;;;;66.93;35.17;;;3.60;99.90;;;;;;5006768;28;20366;-43
2022/01/16 06:15:12;;;;;;;65.15;34.30;;;3.60;99.90;;;;;;5007079;28;20038;-42
2022/01/16 06:17:40;;;;;;;65.10;34.67;;;3.60;99.90;;;;;;5007438;28;20018;-43
2022/01/16 06:20:06;;;;;;;68.05;36.03;;;3.60;99.90;;;;;;5006689;28;20477;-43
2022/01/16 06:22:32;;;;;;;71.30;37.00;;;3.60;99.90;;;;;;5006594;28;20068;-43
2022/01/16 06:24:57;;;;;;;68.32;35.97;;;3.60;99.90;;;;;;5007499;28;20024;-44
2022/01/16 06:27:26;;;;;;;68.88;38.55;;;3.60;99.90;;;;;;5007089;28;20044;-43
2022/01/16 06:29:51;;;;;;;66.13;35.85;;;3.60;99.90;;;;;;5006462;28;20083;-42
2022/01/16 06:32:17;;;;;;;64.97;35.25;;;3.60;99.90;;;;;;5007223;28;20527;-42
2022/01/16 06:34:42;;;;;;;64.25;33.88;;;3.60;99.90;;;;;;5007041;28;20108;-43
2022/01/16 06:37:11;;;;;;;62.60;33.58;;;3.60;99.90;;;;;;5006805;28;20033;-42
2022/01/16 06:39:36;;;;;;;60.67;34.00;;;3.60;99.90;;;;;;5007051;28;20440;-44
2022/01/16 06:42:02;;;;;;;64.80;36.00;;;3.60;99.90;;;;;;5007141;28;20489;-44
2022/01/16 06:44:27;;;;;;;78.38;40.58;;;3.60;99.90;;;;;;5006026;28;20053;-43
2022/01/16 06:46:53;;;;;;;72.95;39.40;;;3.60;99.90;;;;;;5006998;28;20083;-43
2022/01/16 06:49:18;;;;;;;68.05;37.08;;;3.60;99.90;;;;;;5007149;28;20046;-43
2022/01/16 06:51:45;;;;;;;66.55;36.47;;;3.60;99.90;;;;;;5006509;28;20642;-43
2022/01/16 06:54:11;;;;;;;70.32;38.67;;;3.60;99.90;;;;;;5006582;28;20054;-43
2022/01/16 06:56:36;;;;;;;68.28;36.78;;;3.60;99.90;;;;;;5006910;28;20030;-44
2022/01/16 06:59:02;;;;;;;71.32;38.45;;;3.60;99.90;;;;;;5007016;28;20022;-43
2022/01/16 07:01:28;;;;;;;69.93;39.42;;;3.60;99.90;;;;;;5010763;28;20474;-43
2022/01/16 07:03:54;;;;;;;73.25;39.17;;;3.60;99.90;;;;;;5010615;28;20029;-42
2022/01/16 07:06:20;;;;;;;69.25;36.97;;;3.60;99.90;;;;;;5011098;28;20022;-43
2022/01/16 07:08:46;;;;;;;68.25;37.47;;;3.70;99.90;;;;;;5010265;28;20049;-43
2022/01/16 07:11:12;;;;;;;59.75;34.10;;;3.70;99.90;;;;;;5010566;28;20481;-44
2022/01/16 07:13:38;;;;;;;63.88;36.03;;;3.70;99.90;;;;;;5011189;28;20030;-42
2022/01/16 07:16:04;;;;;;;69.45;36.58;;;3.70;99.90;;;;;;5010522;28;20109;-44
2022/01/16 07:18:29;;;;;;;57.97;34.15;;;3.70;99.90;;;;;;5010161;28;20084;-43
2022/01/16 07:20:55;;;;;;;59.80;34.92;;;3.70;99.90;;;;;;5009982;28;20021;-43
2022/01/16 07:23:21;;;;;;;60.70;34.35;;;3.70;99.90;;;;;;5010978;28;20029;-42
2022/01/16 07:25:47;;;;;;;51.97;31.23;;;3.80;99.90;;;;;;5009360;28;20064;-43
2022/01/16 07:28:13;;;;;;;57.10;32.45;;;3.80;99.90;;;;;;5010892;28;20036;-45
2022/01/16 07:30:40;;;;;;;54.65;32.28;;;3.80;99.90;;;;;;5010138;28;20029;-43
2022/01/16 07:33:07;;;;;;;58.63;34.42;;;3.80;99.90;;;;;;5009868;28;20092;-43
2022/01/16 07:35:34;;;;;;;50.28;30.80;;;3.80;99.90;;;;;;5009935;28;20034;-43
2022/01/16 07:38:00;;;;;;;57.20;33.97;;;3.80;99.90;;;;;;5010446;28;20017;-44
2022/01/16 07:40:27;;;;;;;57.30;33.53;;;3.80;99.90;;;;;;5009879;28;20036;-44
2022/01/16 07:42:52;;;;;;;57.15;33.45;;;3.90;99.90;;;;;;5010231;28;20029;-44
2022/01/16 07:45:18;;;;;;;53.90;31.85;;;3.90;99.90;;;;;;5010207;28;20037;-44
2022/01/16 07:47:44;;;;;;;57.08;32.30;;;3.90;99.90;;;;;;5009893;28;20018;-44
2022/01/16 07:50:11;;;;;;;50.20;28.83;;;3.90;99.90;;;;;;5010017;28;20034;-44
2022/01/16 07:52:36;;;;;;;51.08;29.85;;;3.90;99.90;;;;;;5009879;28;20034;-44
2022/01/16 07:55:02;;;;;;;51.22;30.25;;;3.90;99.90;;;;;;5009552;28;20540;-43
2022/01/16 07:57:28;;;;;;;45.92;29.30;;;4.00;99.90;;;;;;5009317;28;20036;-43
2022/01/16 07:59:54;;;;;;;48.28;29.75;;;4.00;99.90;;;;;;5010249;28;20022;-44
2022/01/16 08:02:19;;;;;;;48.67;30.17;;;4.00;99.90;;;;;;5009193;28;20385;-43
2022/01/16 08:04:45;;;;;;;46.92;30.23;;;4.00;99.90;;;;;;5009487;28;20329;-42
2022/01/16 08:07:10;;;;;;;47.58;29.17;;;4.00;99.90;;;;;;5009310;28;20457;-43
2022/01/16 08:09:39;;;;;;;46.60;29.38;;;4.00;99.90;;;;;;5009163;28;20469;-43
2022/01/16 08:12:07;;;;;;;51.35;31.42;;;4.00;99.90;;;;;;5009365;28;20029;-43
2022/01/16 08:14:33;;;;;;;47.63;30.35;;;4.10;99.90;;;;;;5009150;28;20519;-44
2022/01/16 08:17:00;;;;;;;44.65;27.92;;;4.10;99.90;;;;;;5009332;28;20064;-43
2022/01/16 08:19:26;;;;;;;50.03;31.95;;;4.10;99.90;;;;;;5009734;28;20037;-43
2022/01/16 08:21:58;;;;;;;45.65;28.75;;;4.10;99.90;;;;;;5008790;28;20061;-43
2022/01/16 08:24:24;;;;;;;47.55;30.80;;;4.20;99.90;;;;;;4999004;28;20088;-44
2022/01/16 08:26:50;;;;;;;50.35;31.25;;;4.20;99.90;;;;;;5009403;28;20097;-43
2022/01/16 08:29:36;;;;;;;47.70;29.63;;;4.20;99.90;;;;;;5009130;28;20060;-43
2022/01/16 08:32:02;;;;;;;50.22;28.70;;;4.20;99.90;;;;;;5009135;28;20076;-43
2022/01/16 08:34:30;;;;;;;48.55;30.45;;;4.30;99.90;;;;;;5009078;28;20061;-43
2022/01/16 08:36:56;;;;;;;43.10;27.50;;;4.30;99.90;;;;;;5008084;28;20574;-44
2022/01/16 08:39:21;;;;;;;49.20;29.65;;;4.40;99.90;;;;;;5009607;28;20021;-43
2022/01/16 08:41:47;;;;;;;37.35;25.70;;;4.40;99.90;;;;;;5009050;28;20022;-43
2022/01/16 08:44:13;;;;;;;43.05;28.13;;;4.40;99.90;;;;;;5008300;28;20369;-46
2022/01/16 08:46:38;;;;;;;41.83;26.98;;;4.50;99.90;;;;;;5008871;28;20045;-42
2022/01/16 08:49:03;;;;;;;43.33;27.02;;;4.50;99.90;;;;;;5008483;28;20080;-43
2022/01/16 08:51:29;;;;;;;41.25;27.30;;;4.60;99.90;;;;;;5008342;28;20045;-43
2022/01/16 08:53:55;;;;;;;39.28;26.05;;;4.60;99.90;;;;;;5008212;28;20486;-43
2022/01/16 08:56:21;;;;;;;33.65;22.90;;;4.70;99.90;;;;;;5005160;28;20068;-43
2022/01/16 08:58:46;;;;;;;40.25;26.60;;;4.70;99.90;;;;;;5007036;28;20021;-44
2022/01/16 09:01:12;;;;;;;40.47;27.77;;;4.80;99.90;;;;;;5007487;28;20026;-43
2022/01/16 09:03:41;;;;;;;39.78;26.38;;;4.80;99.90;;;;;;5006867;28;20014;-43
2022/01/16 09:06:06;;;;;;;39.40;25.15;;;4.80;99.90;;;;;;5007485;28;20036;-42
2022/01/16 09:08:32;;;;;;;35.97;24.92;;;4.80;99.90;;;;;;5007420;28;20104;-44
2022/01/16 09:10:58;;;;;;;34.25;23.95;;;4.90;99.90;;;;;;5006258;28;20033;-42
2022/01/16 09:13:26;;;;;;;38.92;24.05;;;4.90;99.90;;;;;;5008194;28;20037;-43
2022/01/16 09:15:52;;;;;;;38.05;25.35;;;4.90;99.90;;;;;;5007517;28;20025;-44
2022/01/16 09:18:18;;;;;;;35.85;24.48;;;5.00;99.90;;;;;;5007441;28;20444;-44
2022/01/16 09:20:45;;;;;;;33.67;23.27;;;5.00;99.90;;;;;;5007849;28;20026;-44
2022/01/16 09:23:12;;;;;;;38.60;25.25;;;5.00;99.90;;;;;;5006804;28;20033;-43
2022/01/16 09:25:37;;;;;;;36.80;24.80;;;5.10;99.90;;;;;;5006446;28;20034;-44
2022/01/16 09:28:04;;;;;;;35.47;24.55;;;5.10;99.90;;;;;;5007950;28;20037;-44
2022/01/16 09:30:31;;;;;;;39.08;26.48;;;5.20;99.90;;;;;;5007496;28;20040;-44
2022/01/16 09:32:57;;;;;;;41.25;25.98;;;5.20;99.90;;;;;;4987121;28;20026;-45
2022/01/16 09:35:23;;;;;;;37.47;26.15;;;5.20;99.90;;;;;;5001403;28;20034;-42
2022/01/16 09:37:49;;;;;;;34.65;24.15;;;5.30;99.90;;;;;;5007158;28;20030;-43
2022/01/16 09:40:19;;;;;;;42.58;27.60;;;5.30;99.90;;;;;;5006795;28;20030;-44
2022/01/16 09:42:46;;;;;;;37.75;24.15;;;5.40;99.90;;;;;;5007482;28;20029;-44
2022/01/16 09:45:14;;;;;;;36.13;23.75;;;5.40;99.90;;;;;;5007558;28;20144;-44
2022/01/16 09:47:44;;;;;;;31.60;21.98;;;5.40;99.90;;;;;;5006415;28;20335;-44
2022/01/16 09:50:11;;;;;;;34.40;22.50;;;5.50;99.90;;;;;;5007308;28;20038;-44
2022/01/16 09:52:38;;;;;;;39.28;25.20;;;5.50;99.90;;;;;;5006465;28;20382;-43
2022/01/16 09:55:05;;;;;;;36.35;24.05;;;5.50;99.90;;;;;;5006961;28;20050;-44
2022/01/16 09:57:30;;;;;;;35.30;24.10;;;5.50;99.90;;;;;;5006417;28;20137;-44
2022/01/16 09:59:57;;;;;;;41.53;25.55;;;5.60;99.90;;;;;;5005920;28;20133;-44
2022/01/16 10:02:23;;;;;;;41.70;26.42;;;5.60;99.90;;;;;;5007099;28;20033;-43
2022/01/16 10:04:49;;;;;;;41.78;25.98;;;5.60;99.90;;;;;;5006998;28;20029;-43
2022/01/16 10:07:17;;;;;;;46.33;28.30;;;5.60;99.90;;;;;;5005969;28;20022;-44
2022/01/16 10:10:02;;;;;;;48.65;27.63;;;5.60;99.90;;;;;;5006385;28;20236;-45
2022/01/16 10:12:28;;;;;;;50.58;29.50;;;5.70;99.90;;;;;;5006511;28;20022;-44
2022/01/16 10:14:53;;;;;;;45.22;27.80;;;5.70;99.90;;;;;;5006436;28;20033;-44
2022/01/16 10:17:21;;;;;;;46.58;29.05;;;5.70;99.90;;;;;;5006814;28;20025;-43
2022/01/16 10:20:04;;;;;;;47.35;28.33;;;5.70;99.90;;;;;;5006533;28;20049;-44
2022/01/16 10:22:41;;;;;;;48.72;29.15;;;5.70;99.90;;;;;;5005184;28;20064;-43
2022/01/16 10:25:08;;;;;;;54.90;31.67;;;5.70;99.90;;;;;;5007255;28;20037;-43
2022/01/16 10:27:36;;;;;;;52.92;30.88;;;5.70;99.90;;;;;;5006289;28;20053;-43
2022/01/16 10:30:07;;;;;;;62.38;33.80;;;5.70;99.90;;;;;;5005973;28;20037;-44
2022/01/16 10:32:37;;;;;;;58.67;32.08;;;5.70;99.90;;;;;;5006188;28;20045;-43
2022/01/16 10:35:12;;;;;;;58.83;33.92;;;5.70;99.90;;;;;;4986835;28;20033;-43
2022/01/16 10:37:43;;;;;;;57.72;33.53;;;5.70;99.90;;;;;;5002528;28;20034;-43
2022/01/16 10:40:15;;;;;;;63.35;34.83;;;5.80;99.90;;;;;;5007210;28;20022;-46
2022/01/16 10:42:41;;;;;;;62.73;36.93;;;5.80;99.90;;;;;;5006680;28;20029;-44
2022/01/16 10:45:14;;;;;;;62.78;34.35;;;5.80;99.90;;;;;;5007169;28;20473;-43
2022/01/16 10:47:51;;;;;;;58.72;33.95;;;5.70;99.90;;;;;;5006339;28;20037;-44
2022/01/16 10:50:19;;;;;;;60.65;32.53;;;5.80;99.90;;;;;;5006584;28;20335;-43
2022/01/16 10:52:54;;;;;;;58.85;33.00;;;5.80;99.90;;;;;;5007047;28;20029;-43
2022/01/16 10:55:47;;;;;;;60.30;33.20;;;5.80;99.90;;;;;;5006773;28;20054;-43
2022/01/16 10:58:14;;;;;;;58.88;31.60;;;5.80;99.90;;;;;;5005752;28;20022;-44
2022/01/16 11:00:46;;;;;;;60.28;33.58;;;5.90;99.90;;;;;;5007006;28;20069;-43
2022/01/16 11:03:14;;;;;;;53.97;30.58;;;5.90;99.90;;;;;;5006254;28;20114;-43
2022/01/16 11:05:45;;;;;;;62.05;32.95;;;5.90;99.90;;;;;;5006925;28;20352;-43
2022/01/16 11:08:16;;;;;;;65.20;34.85;;;5.90;99.90;;;;;;5006864;28;20500;-43
2022/01/16 11:10:44;;;;;;;63.83;34.30;;;5.90;99.90;;;;;;5005649;28;20508;-44
2022/01/16 11:13:12;;;;;;;65.72;35.67;;;5.90;99.90;;;;;;5007171;28;20433;-43
2022/01/16 11:15:49;;;;;;;66.45;37.53;;;5.90;99.90;;;;;;5008026;28;20034;-44
2022/01/16 11:18:16;;;;;;;62.30;34.88;;;5.90;99.90;;;;;;5006468;28;20018;-42
2022/01/16 11:20:55;;;;;;;69.55;37.40;;;6.00;99.90;;;;;;5007041;28;20034;-42
2022/01/16 11:23:30;;;;;;;72.57;39.33;;;6.00;99.90;;;;;;5007207;28;20076;-43
2022/01/16 11:26:07;;;;;;;65.68;34.35;;;6.00;99.90;;;;;;5006299;28;20064;-42
2022/01/16 11:28:33;;;;;;;68.07;33.72;;;6.00;99.90;;;;;;5006517;28;20034;-43
2022/01/16 11:31:09;;;;;;;64.72;35.97;;;6.00;99.90;;;;;;5006906;28;20037;-44
2022/01/16 11:33:34;;;;;;;69.78;38.33;;;6.00;99.90;;;;;;5006988;28;20018;-44
2022/01/16 11:36:13;;;;;;;70.93;38.47;;;6.00;99.90;;;;;;5006616;28;20040;-44
2022/01/16 11:38:50;;;;;;;73.60;39.60;;;6.00;99.90;;;;;;5006378;28;20014;-42
2022/01/16 11:41:20;;;;;;;72.40;37.20;;;6.00;99.90;;;;;;5007063;28;20691;-44
2022/01/16 11:43:48;;;;;;;72.22;38.25;;;6.00;99.90;;;;;;5006515;28;20030;-43
2022/01/16 11:46:29;;;;;;;72.30;38.15;;;6.00;99.90;;;;;;5009001;28;20028;-43
2022/01/16 11:49:03;;;;;;;74.97;39.53;;;6.10;99.90;;;;;;5009883;28;20084;-44
2022/01/16 11:51:35;;;;;;;72.97;36.70;;;6.00;99.90;;;;;;5010106;28;20396;-43
2022/01/16 11:54:24;;;;;;;68.07;35.60;;;6.10;99.90;;;;;;5009473;28;20034;-43
2022/01/16 11:56:53;;;;;;;75.78;37.63;;;6.10;99.90;;;;;;5002403;28;20026;-43
2022/01/16 11:59:35;;;;;;;75.75;36.83;;;6.10;99.90;;;;;;5009677;28;20048;-44
2022/01/16 12:02:08;;;;;;;75.25;37.22;;;6.10;99.90;;;;;;5010485;28;20372;-43
2022/01/16 12:04:41;;;;;;;;;;;6.10;99.90;;;;;;5010331;28;20029;-43
2022/01/16 12:07:12;;;;;;;72.57;36.55;;;6.10;99.90;;;;;;5009194;28;20370;-43
2022/01/16 12:09:48;;;;;;;77.65;37.70;;;6.10;99.90;;;;;;5009561;28;20104;-43
2022/01/16 12:12:13;;;;;;;73.18;37.35;;;6.10;99.90;;;;;;5010389;28;20089;-43
2022/01/16 12:14:49;;;;;;;82.25;39.58;;;6.10;99.90;;;;;;5009192;28;20398;-43
2022/01/16 12:17:27;;;;;;;75.43;36.42;;;6.10;99.90;;;;;;5000230;28;20072;-44
2022/01/16 12:19:53;;;;;;;78.00;36.47;;;6.10;99.90;;;;;;5009704;28;20025;-42
2022/01/16 12:22:53;;;;;;;82.00;38.75;;;6.10;99.90;;;;;;5009689;28;20026;-43
2022/01/16 12:25:23;;;;;;;77.78;37.30;;;6.20;99.90;;;;;;5012192;28;20058;-44
2022/01/16 12:28:00;;;;;;;75.78;35.88;;;6.20;99.90;;;;;;5008935;28;20037;-44
2022/01/16 12:30:32;;;;;;;73.90;35.63;;;6.20;99.90;;;;;;5009361;28;20052;-43
2022/01/16 12:32:59;;;;;;;75.55;36.67;;;6.30;99.90;;;;;;5007705;28;20094;-42
2022/01/16 12:35:48;;;;;;;77.57;36.83;;;6.30;99.90;;;;;;5008945;28;20076;-42
2022/01/16 12:38:15;;;;;;;73.00;35.50;;;6.30;99.90;;;;;;5009387;28;20358;-43
2022/01/16 12:40:43;;;;;;;71.60;34.33;;;6.30;99.90;;;;;;5009442;28;20025;-42
2022/01/16 12:43:13;;;;;;;75.20;34.80;;;6.40;99.90;;;;;;5008731;28;20027;-42
2022/01/16 12:45:40;;;;;;;80.28;37.67;;;6.40;99.90;;;;;;5009285;28;20018;-43
2022/01/16 12:48:07;;;;;;;76.70;34.65;;;6.40;99.90;;;;;;5009081;28;20030;-43
2022/01/16 12:50:33;;;;;;;78.13;35.90;;;6.40;99.90;;;;;;5007707;28;20029;-43
2022/01/16 12:52:59;;;;;;;72.03;35.92;;;6.40;99.90;;;;;;5008936;28;20024;-43
2022/01/16 12:55:29;;;;;;;66.40;33.05;;;6.50;99.90;;;;;;5008828;28;20046;-43
2022/01/16 12:58:17;;;;;;;71.03;34.20;;;6.50;99.90;;;;;;5007848;28;20109;-42
2022/01/16 13:01:05;;;;;;;71.53;34.15;;;6.50;99.90;;;;;;5009891;28;20116;-43
2022/01/16 13:03:33;;;;;;;74.63;34.08;;;6.60;99.90;;;;;;5006791;28;20035;-43
2022/01/16 13:06:17;;;;;;;74.28;32.70;;;6.60;99.90;;;;;;5008447;28;20026;-43
2022/01/16 13:08:51;;;;;;;76.40;34.53;;;6.70;99.90;;;;;;5008772;28;20105;-43
2022/01/16 13:11:17;;;;;;;69.28;33.30;;;6.70;99.90;;;;;;5007842;28;20197;-42
2022/01/16 13:13:42;;;;;;;68.05;33.20;;;6.80;99.90;;;;;;5008286;28;20131;-46
2022/01/16 13:16:41;;;;;;;70.43;35.38;;;6.80;99.90;;;;;;5008895;28;20084;-43
2022/01/16 13:19:13;;;;;;;68.28;34.92;;;6.80;99.90;;;;;;5007028;28;20038;-43
2022/01/16 13:21:57;;;;;;;67.40;33.67;;;6.90;99.90;;;;;;5008403;28;20037;-43
2022/01/16 13:24:47;;;;;;;77.95;36.40;;;6.90;99.90;;;;;;4997309;28;20028;-43
2022/01/16 13:27:21;;;;;;;74.05;36.60;;;6.90;99.90;;;;;;5008328;28;20026;-43